Time;durP1;ratioP1;P1;durP2;ratioP2;P2;SDS_P1;SDS_P2;PMS_P1;PMS_P2;Temp;Humidity;BMP_temperature;BMP_pressure;BME280_temperature;BME280_humidity;BME280_pressure;Samples;Min_cycle;Max_cycle;Signal;HPM_P1;HPM_P2
2023/09/05 00:01:45;;;;;;;3.78;3.22;;;16.30;99.90;;;;;;4971424;28;20180;-85
2023/09/05 00:04:13;;;;;;;5.47;3.05;;;16.30;99.90;;;;;;4954787;28;20189;-85
2023/09/05 00:06:40;;;;;;;2.97;2.78;;;16.30;99.90;;;;;;4954607;28;20185;-85
2023/09/05 00:09:05;;;;;;;3.25;2.95;;;16.20;99.90;;;;;;4954632;28;20177;-85
2023/09/05 00:11:32;;;;;;;3.30;3.00;;;16.10;99.90;;;;;;4954789;28;20188;-86
2023/09/05 00:14:00;;;;;;;4.30;3.10;;;16.10;99.90;;;;;;4954443;28;20577;-85
2023/09/05 00:16:27;;;;;;;3.97;2.97;;;16.10;1.00;;;;;;4954567;28;20195;-84
2023/09/05 00:18:53;;;;;;;4.55;3.03;;;16.00;1.00;;;;;;4954489;28;20185;-84
2023/09/05 00:21:19;;;;;;;3.92;3.13;;;16.00;1.00;;;;;;4972004;28;20177;-85
2023/09/05 00:23:44;;;;;;;4.22;3.20;;;15.90;1.00;;;;;;4954073;28;20220;-85
2023/09/05 00:26:10;;;;;;;4.32;3.92;;;15.90;1.00;;;;;;4954386;28;20181;-84
2023/09/05 00:28:36;;;;;;;3.78;3.53;;;15.80;1.00;;;;;;4970129;28;20184;-85
2023/09/05 00:31:01;;;;;;;3.80;3.50;;;15.80;1.00;;;;;;4946325;28;20275;-85
2023/09/05 00:33:31;;;;;;;5.95;3.53;;;15.70;14.90;;;;;;4953997;28;20204;-85
2023/09/05 00:35:57;;;;;;;7.60;4.00;;;15.70;90.20;;;;;;4971424;28;20181;-84
2023/09/05 00:38:22;;;;;;;4.70;4.20;;;15.60;99.90;;;;;;4954245;28;20257;-85
2023/09/05 00:40:49;;;;;;;4.60;4.20;;;15.50;99.90;;;;;;4953796;28;20195;-85
2023/09/05 00:43:20;;;;;;;4.68;4.18;;;15.40;99.90;;;;;;4971223;28;20220;-85
2023/09/05 00:45:55;;;;;;;4.90;4.40;;;15.50;99.90;;;;;;4954092;28;20216;-86
2023/09/05 00:48:27;;;;;;;5.75;4.20;;;15.40;99.90;;;;;;4955354;28;20675;-87
2023/09/05 00:50:56;;;;;;;4.45;4.05;;;15.40;99.90;;;;;;4954020;28;20192;-84
2023/09/05 00:53:26;;;;;;;7.93;4.05;;;15.40;99.90;;;;;;4970933;28;20211;-86
2023/09/05 00:55:53;;;;;;;4.70;4.30;;;15.40;99.90;;;;;;4953762;28;20687;-86
2023/09/05 00:58:20;;;;;;;4.40;4.00;;;15.40;99.90;;;;;;4953569;28;20199;-85
2023/09/05 01:00:45;;;;;;;6.15;4.60;;;15.40;99.90;;;;;;4952971;28;20217;-86
2023/09/05 01:03:11;;;;;;;4.63;3.90;;;15.40;99.90;;;;;;4951782;28;20714;-85
2023/09/05 01:05:39;;;;;;;4.10;3.67;;;15.40;99.90;;;;;;4951839;28;20208;-84
2023/09/05 01:08:25;;;;;;;4.35;4.05;;;15.50;99.90;;;;;;4951834;28;20240;-86
2023/09/05 01:10:53;;;;;;;4.57;4.18;;;15.50;99.90;;;;;;4952824;28;20195;-84
2023/09/05 01:13:31;;;;;;;6.13;4.70;;;15.50;99.90;;;;;;4953532;28;20263;-85
2023/09/05 01:15:56;;;;;;;4.43;4.03;;;15.50;99.90;;;;;;4954154;28;20193;-87
2023/09/05 01:18:23;;;;;;;6.25;4.25;;;15.40;99.90;;;;;;4971260;28;20750;-87
2023/09/05 01:21:30;;;;;;;4.32;3.92;;;15.40;99.90;;;;;;4970633;28;20268;-86
2023/09/05 01:24:11;;;;;;;4.72;4.18;;;15.40;99.90;;;;;;4953224;28;20228;-86
2023/09/05 01:26:37;;;;;;;3.75;3.45;;;15.30;1.00;;;;;;4953817;28;20546;-85
2023/09/05 01:29:05;;;;;;;4.45;4.05;;;15.40;1.00;;;;;;4971438;28;20205;-86
2023/09/05 01:31:31;;;;;;;5.45;3.90;;;15.40;1.00;;;;;;4953715;28;20185;-86
2023/09/05 01:33:57;;;;;;;6.65;4.00;;;15.50;1.00;;;;;;4953847;28;20599;-84
2023/09/05 01:36:22;;;;;;;6.20;4.68;;;15.60;99.90;;;;;;4971110;28;20189;-85
2023/09/05 01:38:48;;;;;;;5.97;4.63;;;15.50;99.90;;;;;;4954463;28;20185;-85
2023/09/05 01:41:14;;;;;;;5.10;4.60;;;15.50;99.90;;;;;;4966792;28;20180;-84
2023/09/05 01:43:39;;;;;;;4.70;4.28;;;15.50;99.90;;;;;;4957435;28;20232;-86
2023/09/05 01:46:05;;;;;;;4.72;4.32;;;15.50;99.90;;;;;;4957462;28;20187;-85
2023/09/05 01:48:30;;;;;;;5.65;4.88;;;15.50;99.90;;;;;;4949179;28;20540;-85
2023/09/05 01:50:56;;;;;;;5.07;4.60;;;15.60;99.90;;;;;;4957329;28;20177;-86
2023/09/05 01:53:23;;;;;;;5.97;5.40;;;15.60;99.90;;;;;;4957057;28;20209;-85
2023/09/05 01:55:49;;;;;;;6.63;5.43;;;15.70;99.90;;;;;;4956902;28;20550;-88
2023/09/05 01:58:15;;;;;;;6.13;5.53;;;15.60;99.90;;;;;;4957033;28;20181;-87
2023/09/05 02:00:40;;;;;;;6.68;5.45;;;15.50;99.90;;;;;;4974237;28;20236;-85
2023/09/05 02:03:06;;;;;;;5.70;5.20;;;15.50;99.90;;;;;;4956558;28;20299;-84
2023/09/05 02:05:31;;;;;;;5.35;4.85;;;15.60;99.90;;;;;;4957047;28;20173;-85
2023/09/05 02:07:57;;;;;;;5.78;5.13;;;15.60;99.90;;;;;;4956754;28;20200;-85
2023/09/05 02:10:23;;;;;;;5.22;4.82;;;15.60;99.90;;;;;;4956715;28;20704;-85
2023/09/05 02:12:49;;;;;;;6.10;4.57;;;15.60;99.90;;;;;;4973608;28;20208;-85
2023/09/05 02:15:15;;;;;;;4.95;4.55;;;15.50;99.90;;;;;;4972307;28;20196;-85
2023/09/05 02:17:41;;;;;;;5.82;5.07;;;15.50;99.90;;;;;;4956648;28;20189;-84
2023/09/05 02:20:07;;;;;;;5.32;4.82;;;15.50;99.90;;;;;;4956717;28;20188;-86
2023/09/05 02:22:32;;;;;;;6.40;5.35;;;15.50;99.90;;;;;;4956153;28;20215;-83
2023/09/05 02:24:59;;;;;;;5.65;5.15;;;15.50;99.90;;;;;;4956533;28;20188;-85
2023/09/05 02:27:26;;;;;;;6.68;6.10;;;15.50;99.90;;;;;;4956365;28;20185;-84
2023/09/05 02:30:01;;;;;;;6.03;5.30;;;15.60;99.90;;;;;;4955948;28;20185;-84
2023/09/05 02:32:29;;;;;;;6.65;6.15;;;15.30;99.90;;;;;;4955841;28;20778;-85
2023/09/05 02:34:55;;;;;;;6.10;5.60;;;15.20;70.80;;;;;;4956202;28;20188;-85
2023/09/05 02:37:21;;;;;;;6.90;6.28;;;15.30;41.90;;;;;;4956442;28;20216;-84
2023/09/05 02:39:46;;;;;;;6.10;5.55;;;15.40;14.40;;;;;;4973226;28;20773;-85
2023/09/05 02:42:12;;;;;;;5.85;5.25;;;15.30;1.00;;;;;;4955823;28;20303;-85
2023/09/05 02:44:37;;;;;;;6.13;5.60;;;15.40;1.10;;;;;;4956271;28;20183;-85
2023/09/05 02:47:03;;;;;;;6.57;6.07;;;15.40;1.00;;;;;;4973486;28;20189;-86
2023/09/05 02:49:30;;;;;;;7.20;6.55;;;15.30;1.00;;;;;;4956027;28;20189;-85
2023/09/05 02:51:57;;;;;;;6.40;5.80;;;15.30;47.30;;;;;;4971980;28;20275;-85
2023/09/05 02:54:23;;;;;;;6.28;5.75;;;15.30;99.90;;;;;;4955976;28;20676;-86
2023/09/05 02:56:49;;;;;;;6.00;5.50;;;15.20;86.00;;;;;;4955925;28;20193;-85
2023/09/05 02:59:14;;;;;;;7.03;6.13;;;15.20;96.40;;;;;;4973007;28;20195;-85
2023/09/05 03:01:40;;;;;;;6.65;6.05;;;15.20;99.90;;;;;;4973001;28;20193;-86
2023/09/05 03:04:05;;;;;;;6.50;5.90;;;15.30;99.90;;;;;;4955593;28;20213;-85
2023/09/05 03:06:31;;;;;;;6.55;5.93;;;15.20;99.90;;;;;;4973292;28;20196;-85
2023/09/05 03:08:56;;;;;;;6.20;5.70;;;15.30;99.90;;;;;;4973106;28;20184;-85
2023/09/05 03:11:22;;;;;;;6.32;5.75;;;15.40;99.90;;;;;;4955555;28;20247;-85
2023/09/05 03:13:48;;;;;;;6.20;5.60;;;15.30;99.90;;;;;;4955587;28;20347;-84
2023/09/05 03:16:14;;;;;;;7.30;6.57;;;15.00;99.90;;;;;;4955746;28;20181;-87
2023/09/05 03:18:39;;;;;;;7.85;6.00;;;15.10;99.90;;;;;;4955421;28;20185;-86
2023/09/05 03:21:05;;;;;;;6.95;6.28;;;15.10;99.90;;;;;;4955636;28;20184;-86
2023/09/05 03:23:31;;;;;;;8.77;6.95;;;15.10;99.90;;;;;;4955053;28;20299;-85
2023/09/05 03:25:56;;;;;;;6.88;6.20;;;15.10;99.90;;;;;;4955383;28;20675;-85
2023/09/05 03:28:23;;;;;;;6.32;5.82;;;15.00;99.90;;;;;;4955612;28;20181;-84
2023/09/05 03:30:48;;;;;;;6.53;5.93;;;15.10;99.90;;;;;;4955441;28;20213;-85
2023/09/05 03:33:14;;;;;;;7.20;6.57;;;15.40;99.90;;;;;;4955176;28;20299;-86
2023/09/05 03:35:42;;;;;;;6.97;6.30;;;15.10;99.90;;;;;;4955220;28;20185;-85
2023/09/05 03:38:08;;;;;;;7.30;6.60;;;15.10;99.90;;;;;;4954866;28;20200;-84
2023/09/05 03:40:34;;;;;;;6.93;6.25;;;15.40;99.90;;;;;;4972682;28;20177;-85
2023/09/05 03:43:00;;;;;;;7.47;6.72;;;15.30;99.90;;;;;;4954646;28;20204;-85
2023/09/05 03:45:27;;;;;;;7.25;6.65;;;15.10;99.90;;;;;;4972589;28;20184;-85
2023/09/05 03:47:53;;;;;;;7.65;6.95;;;15.00;99.90;;;;;;4954802;28;20727;-85
2023/09/05 03:50:21;;;;;;;7.75;7.05;;;15.00;99.90;;;;;;4955125;28;20272;-86
2023/09/05 03:52:46;;;;;;;7.72;7.03;;;14.90;99.90;;;;;;4954505;28;20288;-86
2023/09/05 03:55:13;;;;;;;7.22;6.53;;;14.80;99.90;;;;;;4972354;28;20268;-85
2023/09/05 03:57:38;;;;;;;7.72;6.93;;;14.90;99.90;;;;;;4954899;28;20189;-85
2023/09/05 04:00:07;;;;;;;8.27;7.47;;;15.00;99.90;;;;;;4954672;28;21116;-85
2023/09/05 04:02:32;;;;;;;8.60;6.88;;;14.90;99.90;;;;;;4953926;28;20240;-86
2023/09/05 04:04:58;;;;;;;7.97;7.22;;;14.90;99.90;;;;;;4972125;28;20271;-86
2023/09/05 04:07:23;;;;;;;8.02;7.03;;;14.90;99.90;;;;;;4954880;28;20177;-86
2023/09/05 04:09:49;;;;;;;7.80;7.15;;;14.90;99.90;;;;;;4972049;28;20185;-86
2023/09/05 04:12:15;;;;;;;8.20;7.50;;;14.90;99.90;;;;;;4954339;28;20209;-86
2023/09/05 04:14:41;;;;;;;7.90;7.20;;;14.90;99.90;;;;;;4954473;28;20192;-86
2023/09/05 04:17:07;;;;;;;8.05;7.35;;;14.80;99.90;;;;;;4971550;28;20569;-85
2023/09/05 04:19:32;;;;;;;6.95;6.35;;;14.80;99.90;;;;;;4945474;28;20239;-86
2023/09/05 04:21:58;;;;;;;8.45;7.28;;;14.80;1.00;;;;;;4971337;28;20189;-87
2023/09/05 04:24:24;;;;;;;8.55;7.75;;;14.80;99.90;;;;;;4953646;28;20200;-87
2023/09/05 04:26:50;;;;;;;8.27;7.30;;;14.80;99.90;;;;;;4954586;28;20188;-86
2023/09/05 04:29:16;;;;;;;8.43;7.60;;;14.80;99.90;;;;;;4949775;28;20224;-87
2023/09/05 04:31:42;;;;;;;8.80;7.97;;;14.70;99.90;;;;;;4971566;28;20177;-86
2023/09/05 04:34:08;;;;;;;8.93;8.10;;;14.70;99.90;;;;;;4954048;28;20261;-87
2023/09/05 04:36:36;;;;;;;7.72;7.03;;;14.70;1.00;;;;;;4971382;28;20188;-86
2023/09/05 04:39:05;;;;;;;8.40;7.75;;;14.70;1.00;;;;;;4962147;28;20606;-87
2023/09/05 04:41:30;;;;;;;8.50;7.65;;;14.70;1.00;;;;;;4953869;28;20185;-87
2023/09/05 04:43:56;;;;;;;9.07;7.82;;;14.70;1.00;;;;;;4953725;28;20594;-86
2023/09/05 04:46:22;;;;;;;8.73;8.02;;;14.70;1.00;;;;;;4971431;28;20192;-87
2023/09/05 04:48:49;;;;;;;8.68;7.90;;;14.70;1.00;;;;;;4954049;28;20192;-89
2023/09/05 04:51:14;;;;;;;9.30;8.27;;;14.70;1.00;;;;;;4970880;28;20204;-89
2023/09/05 04:53:40;;;;;;;9.02;8.15;;;14.70;1.00;;;;;;4953778;28;20242;-86
2023/09/05 04:56:06;;;;;;;9.25;8.02;;;14.70;99.90;;;;;;4954092;28;20189;-86
2023/09/05 04:58:32;;;;;;;9.32;8.38;;;14.80;99.90;;;;;;4971141;28;20199;-86
2023/09/05 05:01:02;;;;;;;8.93;8.20;;;14.80;99.90;;;;;;4953679;28;20216;-86
2023/09/05 05:03:32;;;;;;;9.00;8.20;;;14.90;99.90;;;;;;4953560;28;20227;-86
2023/09/05 05:05:58;;;;;;;10.43;8.13;;;14.90;99.90;;;;;;4970869;28;20244;-86
2023/09/05 05:08:24;;;;;;;8.98;8.18;;;14.90;99.90;;;;;;4954126;28;20248;-85
2023/09/05 05:10:50;;;;;;;9.25;8.25;;;14.80;99.90;;;;;;4971193;28;20177;-87
2023/09/05 05:13:15;;;;;;;8.85;8.00;;;14.90;99.90;;;;;;4953226;28;20211;-87
2023/09/05 05:15:44;;;;;;;9.55;8.65;;;14.90;99.90;;;;;;4957545;28;20664;-86
2023/09/05 05:18:09;;;;;;;8.52;7.82;;;15.00;99.90;;;;;;4957491;28;20199;-87
2023/09/05 05:20:35;;;;;;;9.18;8.38;;;14.70;1.00;;;;;;4957221;28;20263;-88
2023/09/05 05:23:01;;;;;;;10.35;9.25;;;14.80;1.00;;;;;;4955537;28;20228;-86
2023/09/05 05:25:26;;;;;;;9.48;8.57;;;14.80;99.90;;;;;;4957367;28;20184;-86
2023/09/05 05:27:52;;;;;;;9.73;8.93;;;14.80;1.00;;;;;;4957643;28;20691;-86
2023/09/05 05:30:18;;;;;;;9.98;9.18;;;14.70;1.00;;;;;;4974901;28;20184;-86
2023/09/05 05:32:46;;;;;;;10.02;8.95;;;14.70;1.00;;;;;;4957178;28;20295;-87
2023/09/05 05:35:11;;;;;;;8.93;8.02;;;14.80;1.00;;;;;;4957392;28;20748;-87
2023/09/05 05:37:37;;;;;;;8.75;8.00;;;14.80;1.00;;;;;;4957294;28;20275;-86
2023/09/05 05:40:03;;;;;;;10.05;9.05;;;14.90;1.00;;;;;;4953406;28;20239;-87
2023/09/05 05:42:29;;;;;;;9.68;8.88;;;14.90;54.70;;;;;;4953946;28;20216;-87
2023/09/05 05:44:55;;;;;;;9.57;8.68;;;15.00;1.00;;;;;;4953918;28;20197;-86
2023/09/05 05:47:22;;;;;;;9.15;8.18;;;15.00;1.00;;;;;;4974271;28;20188;-87
2023/09/05 05:49:48;;;;;;;10.35;9.25;;;15.10;1.00;;;;;;4956884;28;20189;-90
2023/09/05 05:52:14;;;;;;;9.57;8.60;;;15.10;1.00;;;;;;4957406;28;20764;-89
2023/09/05 05:54:39;;;;;;;9.25;8.38;;;15.20;1.00;;;;;;4957843;28;20189;-89
2023/09/05 05:57:05;;;;;;;8.82;8.02;;;15.20;1.00;;;;;;4958485;28;20562;-89
2023/09/05 05:59:30;;;;;;;9.13;8.23;;;15.30;1.00;;;;;;4958072;28;20672;-90
2023/09/05 06:01:56;;;;;;;9.57;8.68;;;15.30;1.00;;;;;;4956544;28;20183;-88
2023/09/05 06:04:23;;;;;;;8.85;7.95;;;15.40;1.00;;;;;;4973746;28;20578;-90
2023/09/05 06:06:49;;;;;;;8.95;8.15;;;15.40;1.00;;;;;;4957407;28;20189;-90
2023/09/05 06:09:19;;;;;;;9.07;8.27;;;15.40;1.00;;;;;;4957932;28;20181;-91
2023/09/05 06:11:45;;;;;;;10.90;9.27;;;15.50;61.30;;;;;;4956642;28;20184;-89
2023/09/05 06:14:14;;;;;;;9.55;8.65;;;15.40;99.90;;;;;;4972387;28;20668;-90
2023/09/05 06:16:40;;;;;;;9.95;8.98;;;15.40;1.00;;;;;;4955090;28;20193;-90
2023/09/05 06:19:07;;;;;;;9.88;8.95;;;15.40;99.90;;;;;;4957831;28;20291;-89
2023/09/05 06:21:33;;;;;;;9.35;8.27;;;15.50;1.00;;;;;;4973050;28;20208;-90
2023/09/05 06:23:58;;;;;;;9.07;8.27;;;15.50;99.90;;;;;;4953058;28;20295;-90
2023/09/05 06:26:24;;;;;;;9.23;8.32;;;15.60;99.90;;;;;;4956629;28;20273;-90
2023/09/05 06:28:51;;;;;;;9.35;8.50;;;15.60;1.00;;;;;;4955971;28;20192;-89
2023/09/05 06:31:17;;;;;;;9.70;8.88;;;16.00;99.90;;;;;;4958038;28;20191;-90
2023/09/05 06:33:42;;;;;;;8.80;7.90;;;16.00;1.00;;;;;;4957007;28;20200;-90
2023/09/05 06:36:09;;;;;;;10.38;8.63;;;15.80;99.90;;;;;;4957607;28;20243;-90
2023/09/05 06:38:36;;;;;;;8.93;8.02;;;15.90;1.00;;;;;;4956679;28;20188;-90
2023/09/05 06:41:09;;;;;;;9.15;8.25;;;16.20;1.00;;;;;;4963288;28;20193;-89
2023/09/05 06:43:36;;;;;;;8.75;7.95;;;16.10;98.00;;;;;;4956963;28;20215;-90
2023/09/05 06:46:05;;;;;;;11.48;6.63;;;16.40;8.20;;;;;;4957033;28;20196;-90
2023/09/05 06:48:31;;;;;;;5.68;4.53;;;17.10;1.00;;;;;;4966692;28;20177;-90
2023/09/05 06:51:00;;;;;;;4.80;4.32;;;17.90;1.00;;;;;;4957910;28;20239;-89
2023/09/05 06:53:27;;;;;;;4.38;3.53;;;18.70;99.90;;;;;;4956730;28;20263;-89
2023/09/05 06:55:53;;;;;;;3.25;2.90;;;19.70;1.00;;;;;;4956695;28;20193;-88
2023/09/05 06:58:22;;;;;;;4.88;3.35;;;20.20;1.00;;;;;;4964716;28;20192;-90
2023/09/05 07:00:51;;;;;;;4.75;3.13;;;20.40;1.00;;;;;;4965524;28;20189;-89
2023/09/05 07:03:17;;;;;;;4.40;2.95;;;20.30;1.00;;;;;;4956378;28;20212;-88
2023/09/05 07:05:44;;;;;;;3.20;2.80;;;20.00;1.00;;;;;;4956939;28;20177;-89
2023/09/05 07:08:09;;;;;;;3.22;2.50;;;19.60;1.00;;;;;;4956585;28;21159;-88
2023/09/05 07:10:36;;;;;;;3.95;3.00;;;19.50;1.00;;;;;;4974235;28;20196;-89
2023/09/05 07:13:01;;;;;;;3.42;3.10;;;19.30;1.00;;;;;;4973647;28;20244;-88
2023/09/05 07:15:27;;;;;;;4.10;2.85;;;19.20;1.00;;;;;;4956744;28;20683;-88
2023/09/05 07:17:53;;;;;;;3.00;2.70;;;19.10;1.00;;;;;;4956688;28;20193;-88
2023/09/05 07:20:18;;;;;;;3.72;2.95;;;19.00;1.00;;;;;;4972474;28;20570;-88
2023/09/05 07:22:44;;;;;;;6.03;2.92;;;19.00;1.00;;;;;;4954166;28;20217;-89
2023/09/05 07:25:09;;;;;;;3.20;2.95;;;19.00;1.00;;;;;;4953571;28;20185;-88
2023/09/05 07:27:35;;;;;;;4.32;2.60;;;19.10;1.00;;;;;;4954829;28;20271;-88
2023/09/05 07:30:01;;;;;;;3.42;2.80;;;19.10;1.00;;;;;;4954101;28;20181;-88
2023/09/05 07:32:26;;;;;;;4.47;2.75;;;19.10;1.00;;;;;;4952336;28;20263;-89
2023/09/05 07:34:52;;;;;;;3.92;3.03;;;19.10;1.00;;;;;;4944195;28;20181;-88
2023/09/05 07:37:18;;;;;;;5.32;3.63;;;19.20;1.00;;;;;;4953979;28;20563;-87
2023/09/05 07:39:46;;;;;;;4.38;3.33;;;19.00;1.00;;;;;;4971995;28;20181;-87
2023/09/05 07:42:11;;;;;;;5.05;2.80;;;19.10;1.00;;;;;;4954095;28;20295;-87
2023/09/05 07:44:37;;;;;;;3.80;3.25;;;19.20;1.00;;;;;;4971501;28;20287;-89
2023/09/05 07:47:03;;;;;;;4.47;2.80;;;19.20;1.00;;;;;;4970632;28;20304;-89
2023/09/05 07:49:31;;;;;;;3.08;2.80;;;19.40;1.00;;;;;;4954743;28;20239;-89
2023/09/05 07:51:57;;;;;;;5.53;3.05;;;19.50;1.00;;;;;;4953675;28;20188;-88
2023/09/05 07:54:25;;;;;;;4.97;2.80;;;19.60;1.00;;;;;;4955388;28;20652;-89
2023/09/05 07:56:51;;;;;;;3.95;2.65;;;19.80;1.00;;;;;;4953628;28;20583;-89
2023/09/05 07:59:17;;;;;;;3.17;2.38;;;20.00;1.00;;;;;;4973238;28;20189;-89
2023/09/05 08:01:42;;;;;;;4.10;2.45;;;20.20;1.00;;;;;;4955210;28;20188;-89
2023/09/05 08:04:08;;;;;;;3.47;2.53;;;20.40;1.00;;;;;;4954812;28;20223;-90
2023/09/05 08:06:34;;;;;;;4.40;2.72;;;20.50;1.00;;;;;;4955239;28;20185;-89
2023/09/05 08:09:01;;;;;;;4.43;2.15;;;20.60;1.00;;;;;;4974509;28;20199;-90
2023/09/05 08:11:26;;;;;;;5.20;2.30;;;20.70;1.00;;;;;;4954915;28;20177;-88
2023/09/05 08:13:52;;;;;;;5.18;2.60;;;20.80;1.00;;;;;;4953792;28;20760;-89
2023/09/05 08:16:18;;;;;;;3.85;2.40;;;20.80;1.00;;;;;;4955402;28;20188;-88
2023/09/05 08:18:43;;;;;;;2.22;1.95;;;20.90;1.00;;;;;;4955256;28;20196;-89
2023/09/05 08:21:09;;;;;;;4.43;2.20;;;21.00;1.00;;;;;;4953008;28;20571;-88
2023/09/05 08:23:34;;;;;;;3.33;1.90;;;21.20;1.00;;;;;;4952295;28;20227;-88
2023/09/05 08:26:00;;;;;;;3.03;1.90;;;21.30;1.00;;;;;;4952885;28;20551;-88
2023/09/05 08:28:32;;;;;;;2.33;1.80;;;21.50;99.90;;;;;;4952439;28;20177;-88
2023/09/05 08:30:59;;;;;;;4.32;1.77;;;21.60;99.90;;;;;;4962932;28;20188;-88
2023/09/05 08:33:25;;;;;;;2.72;1.73;;;21.70;99.90;;;;;;4951494;28;20252;-88
2023/09/05 08:35:52;;;;;;;2.70;1.63;;;21.80;99.90;;;;;;4951271;28;20276;-88
2023/09/05 08:38:18;;;;;;;2.78;1.92;;;21.90;99.90;;;;;;4967903;28;20264;-89
2023/09/05 08:40:46;;;;;;;1.70;1.60;;;22.00;99.90;;;;;;4952367;28;20288;-88
2023/09/05 08:43:13;;;;;;;1.88;1.60;;;22.00;99.90;;;;;;4950295;28;20227;-86
2023/09/05 08:45:43;;;;;;;2.40;1.77;;;22.10;99.90;;;;;;4952011;28;20181;-85
2023/09/05 08:48:08;;;;;;;2.38;1.80;;;22.30;99.90;;;;;;4952331;28;20181;-88
2023/09/05 08:50:36;;;;;;;1.88;1.75;;;22.30;99.90;;;;;;4952859;28;20550;-84
2023/09/05 08:53:10;;;;;;;3.08;1.85;;;22.40;99.90;;;;;;4952649;28;20252;-85
2023/09/05 08:55:37;;;;;;;4.00;1.75;;;22.50;99.90;;;;;;4949714;28;20193;-85
2023/09/05 08:58:04;;;;;;;2.47;1.70;;;22.40;99.90;;;;;;4953246;28;20197;-86
2023/09/05 09:00:30;;;;;;;2.35;1.60;;;22.60;99.90;;;;;;4970274;28;20583;-85
2023/09/05 09:02:56;;;;;;;3.17;1.58;;;22.60;99.90;;;;;;4950474;28;20223;-85
2023/09/05 09:05:22;;;;;;;2.30;1.30;;;22.60;99.90;;;;;;4952857;28;20180;-84
2023/09/05 09:07:47;;;;;;;1.73;1.38;;;22.60;99.90;;;;;;4951340;28;20324;-85
2023/09/05 09:10:21;;;;;;;1.95;1.50;;;22.70;99.90;;;;;;4950689;28;20195;-83
2023/09/05 09:12:54;;;;;;;2.30;1.70;;;22.60;99.90;;;;;;4950182;28;20224;-84
2023/09/05 09:15:22;;;;;;;3.38;1.73;;;22.70;99.90;;;;;;4951591;28;20598;-84
2023/09/05 09:17:51;;;;;;;1.90;1.50;;;22.80;99.90;;;;;;4966617;28;20694;-85
2023/09/05 09:20:19;;;;;;;2.05;1.25;;;23.00;99.90;;;;;;4970737;28;20196;-84
2023/09/05 09:22:45;;;;;;;2.63;1.48;;;23.10;99.90;;;;;;4953237;28;20303;-83
2023/09/05 09:25:20;;;;;;;4.30;1.77;;;23.20;99.90;;;;;;4971600;28;20604;-84
2023/09/05 09:27:50;;;;;;;1.77;1.55;;;23.30;99.90;;;;;;4953845;28;20567;-84
2023/09/05 09:30:21;;;;;;;2.25;1.42;;;23.30;99.90;;;;;;4969952;28;20184;-83
2023/09/05 09:32:50;;;;;;;2.00;1.70;;;23.50;99.90;;;;;;4953485;28;20335;-85
2023/09/05 09:35:16;;;;;;;2.17;1.80;;;23.60;99.90;;;;;;4969914;28;20303;-86
2023/09/05 09:37:49;;;;;;;2.13;1.92;;;23.50;99.90;;;;;;4967551;28;20829;-84
2023/09/05 09:40:18;;;;;;;2.75;2.10;;;23.50;99.90;;;;;;4969106;28;20216;-84
2023/09/05 09:42:50;;;;;;;2.33;2.10;;;23.60;99.90;;;;;;4969598;28;20243;-84
2023/09/05 09:45:16;;;;;;;2.33;2.10;;;23.80;99.90;;;;;;4951226;28;20189;-84
2023/09/05 09:47:47;;;;;;;3.50;2.00;;;24.00;99.90;;;;;;4949416;28;20205;-86
2023/09/05 09:50:13;;;;;;;2.38;2.05;;;24.00;99.90;;;;;;4968688;28;20185;-84
2023/09/05 09:52:44;;;;;;;5.05;2.10;;;24.10;99.90;;;;;;4968342;28;20262;-84
2023/09/05 09:55:13;;;;;;;4.95;2.13;;;24.10;99.90;;;;;;4967947;28;20546;-84
2023/09/05 09:58:05;;;;;;;2.70;2.13;;;24.10;99.90;;;;;;4967496;28;20189;-85
2023/09/05 10:00:32;;;;;;;2.58;1.98;;;24.10;99.90;;;;;;4969933;28;20197;-83
2023/09/05 10:03:00;;;;;;;4.20;2.22;;;24.20;99.90;;;;;;4955251;28;20696;-83
2023/09/05 10:05:26;;;;;;;2.85;2.28;;;24.10;99.90;;;;;;4955178;28;20244;-83
2023/09/05 10:08:11;;;;;;;2.67;2.33;;;24.20;99.90;;;;;;4972731;28;20181;-84
2023/09/05 10:10:41;;;;;;;4.18;2.13;;;24.50;99.90;;;;;;4954743;28;20267;-83
2023/09/05 10:13:08;;;;;;;3.00;2.00;;;24.60;91.00;;;;;;4972626;28;20708;-83
2023/09/05 10:15:36;;;;;;;2.75;2.10;;;24.50;91.60;;;;;;4957074;28;20184;-83
2023/09/05 10:18:02;;;;;;;3.50;2.08;;;24.50;88.80;;;;;;4972646;28;20248;-83
2023/09/05 10:20:31;;;;;;;2.20;1.90;;;24.70;75.30;;;;;;4953119;28;20712;-83
2023/09/05 10:22:57;;;;;;;2.47;1.92;;;24.70;76.20;;;;;;4953889;28;20574;-83
2023/09/05 10:25:24;;;;;;;2.35;1.70;;;24.90;97.20;;;;;;4954793;28;20189;-83
2023/09/05 10:27:50;;;;;;;2.25;1.90;;;25.00;90.00;;;;;;4955072;28;20221;-83
2023/09/05 10:30:16;;;;;;;5.72;1.83;;;25.10;36.10;;;;;;4954035;28;20185;-83
2023/09/05 10:32:46;;;;;;;1.83;1.65;;;25.20;27.10;;;;;;4954777;28;20244;-84
2023/09/05 10:35:17;;;;;;;3.05;1.52;;;25.20;17.30;;;;;;4971869;28;20197;-84
2023/09/05 10:37:49;;;;;;;1.77;1.40;;;25.30;13.80;;;;;;4955838;28;20185;-83
2023/09/05 10:40:17;;;;;;;3.00;1.55;;;25.50;31.90;;;;;;4956676;28;20236;-83
2023/09/05 10:42:51;;;;;;;2.63;1.50;;;25.40;13.80;;;;;;4955304;28;20582;-84
2023/09/05 10:45:22;;;;;;;1.80;1.58;;;25.50;6.10;;;;;;4971931;28;20181;-83
2023/09/05 10:47:53;;;;;;;2.22;1.63;;;25.50;1.00;;;;;;4954823;28;20185;-83
2023/09/05 10:50:20;;;;;;;2.05;1.45;;;25.50;6.30;;;;;;4954299;28;20181;-83
2023/09/05 10:53:11;;;;;;;3.15;1.70;;;25.50;1.00;;;;;;4971961;28;20212;-83
2023/09/05 10:55:44;;;;;;;4.03;1.40;;;25.40;1.00;;;;;;4953331;28;20193;-84
2023/09/05 10:58:43;;;;;;;2.92;1.30;;;25.40;1.00;;;;;;4954316;28;20228;-83
2023/09/05 11:01:32;;;;;;;1.92;1.23;;;25.60;1.00;;;;;;4972507;28;20196;-84
2023/09/05 11:04:07;;;;;;;2.83;1.50;;;25.70;1.00;;;;;;4959695;28;20228;-83
2023/09/05 11:06:42;;;;;;;1.70;1.27;;;25.90;1.00;;;;;;4964972;28;20188;-83
2023/09/05 11:09:08;;;;;;;3.35;1.38;;;26.00;1.00;;;;;;4972170;28;20270;-85
2023/09/05 11:11:36;;;;;;;5.78;1.80;;;26.00;1.00;;;;;;4972994;28;20185;-85
2023/09/05 11:14:03;;;;;;;1.70;1.33;;;26.00;1.00;;;;;;4973836;28;20208;-83
2023/09/05 11:16:42;;;;;;;3.13;1.33;;;26.20;1.00;;;;;;4972134;28;20203;-84
2023/09/05 11:19:07;;;;;;;1.70;1.33;;;26.30;1.00;;;;;;4955677;28;20197;-83
2023/09/05 11:21:33;;;;;;;2.40;1.50;;;26.40;1.00;;;;;;4955002;28;20260;-83
2023/09/05 11:23:59;;;;;;;3.58;1.15;;;26.40;1.00;;;;;;4954534;28;20311;-85
2023/09/05 11:26:25;;;;;;;3.15;1.60;;;26.50;1.00;;;;;;4969960;28;20399;-83
2023/09/05 11:28:51;;;;;;;3.30;1.70;;;26.60;1.00;;;;;;4950254;28;20566;-84
2023/09/05 11:31:17;;;;;;;4.63;1.33;;;26.60;1.00;;;;;;4953536;28;20288;-84
2023/09/05 11:33:44;;;;;;;1.67;0.90;;;26.70;1.00;;;;;;4953305;28;20295;-84
2023/09/05 11:36:10;;;;;;;1.65;1.23;;;26.70;1.00;;;;;;4971534;28;21090;-85
2023/09/05 11:38:47;;;;;;;3.80;1.20;;;26.80;1.00;;;;;;4951714;28;20181;-86
2023/09/05 11:41:16;;;;;;;3.45;1.40;;;26.80;1.00;;;;;;4952700;28;20287;-84
2023/09/05 11:43:54;;;;;;;2.45;1.17;;;26.80;1.00;;;;;;4950810;28;20601;-84
2023/09/05 11:46:21;;;;;;;3.67;1.50;;;26.90;1.00;;;;;;4952891;28;20179;-85
2023/09/05 11:48:49;;;;;;;1.30;1.20;;;27.00;1.00;;;;;;4968745;28;20244;-84
2023/09/05 11:51:16;;;;;;;2.95;1.30;;;27.10;1.00;;;;;;4951218;28;20551;-84
2023/09/05 11:53:46;;;;;;;1.20;1.10;;;27.10;1.00;;;;;;4949293;28;20216;-83
2023/09/05 11:56:11;;;;;;;2.42;1.38;;;27.20;1.00;;;;;;4949873;28;20570;-83
2023/09/05 11:58:38;;;;;;;1.95;1.10;;;27.10;1.00;;;;;;4952470;28;20244;-84
2023/09/05 12:01:04;;;;;;;1.40;1.23;;;27.10;1.00;;;;;;4969567;28;20372;-84
2023/09/05 12:03:30;;;;;;;3.35;1.10;;;27.00;1.00;;;;;;4953988;28;20209;-84
2023/09/05 12:05:57;;;;;;;1.75;1.17;;;27.20;1.00;;;;;;4969687;28;20188;-84
2023/09/05 12:08:23;;;;;;;1.70;1.08;;;27.20;1.00;;;;;;4969668;28;20664;-84
2023/09/05 12:10:52;;;;;;;1.10;0.90;;;27.20;1.00;;;;;;4970785;28;20189;-84
2023/09/05 12:13:40;;;;;;;2.08;1.05;;;27.00;1.00;;;;;;4952390;28;20601;-85
2023/09/05 12:16:07;;;;;;;4.22;1.20;;;27.00;1.00;;;;;;4952919;28;20679;-84
2023/09/05 12:18:33;;;;;;;2.03;1.00;;;26.90;1.00;;;;;;4970562;28;20192;-84
2023/09/05 12:21:02;;;;;;;0.82;0.70;;;27.00;1.00;;;;;;4953512;28;20193;-85
2023/09/05 12:23:31;;;;;;;2.45;1.30;;;27.10;1.00;;;;;;4952129;28;20212;-85
2023/09/05 12:25:57;;;;;;;3.58;1.20;;;27.10;1.00;;;;;;4953344;28;20193;-85
2023/09/05 12:28:24;;;;;;;3.05;1.00;;;27.30;1.00;;;;;;4953342;28;20181;-85
2023/09/05 12:30:53;;;;;;;1.65;0.90;;;27.50;1.00;;;;;;4953222;28;20645;-84
2023/09/05 12:33:20;;;;;;;2.05;1.38;;;27.60;1.00;;;;;;4953012;28;20260;-84
2023/09/05 12:35:46;;;;;;;1.88;0.88;;;27.50;1.00;;;;;;4970476;28;20192;-84
2023/09/05 12:38:14;;;;;;;3.08;0.82;;;27.80;1.00;;;;;;4952569;28;20216;-84
2023/09/05 12:40:40;;;;;;;1.40;0.70;;;28.00;1.00;;;;;;4952292;28;20208;-84
2023/09/05 12:43:06;;;;;;;1.60;0.80;;;28.00;1.00;;;;;;4967930;28;20208;-84
2023/09/05 12:45:32;;;;;;;2.00;0.80;;;28.00;1.00;;;;;;4952392;28;20181;-84
2023/09/05 12:47:59;;;;;;;2.17;0.80;;;28.00;1.00;;;;;;4969545;28;20192;-84
2023/09/05 12:50:30;;;;;;;1.38;0.90;;;27.90;1.00;;;;;;4952286;28;20193;-85
2023/09/05 12:52:56;;;;;;;2.70;0.60;;;27.70;1.00;;;;;;4952565;28;20259;-84